Portada
METAR-TAF:

METAR-TAF

Aeroports :

Şanlıurfa, Turquia

latitud: 37-27N, longitud: 38-54E, altitud: 823 m

Observació

L'informe es va fer fa 43 minuts, a les 12:20 UTC
Vent 11 kt del Oest/Sud-Oest, variant entre Sud-Oest i Oest/Nord-Oest
Temperatura 31°C
Humitat 19%
Pressió 1012 hPa
Visibilitat 10 km o més
sense núvols per sota de 1500 mi sense presència de cumulonimbus.

METAR: LTCS 291220Z 25011KT 220V290 CAVOK 31/05 Q1012 RMK RWY22 23012KT 200V260 SKC

Hora: 16:03 (13:03 UTC)

Pronòstic

L'informe es va fer fa 2 hores i 23 minuts, a les 10:40 UTC
Pronòstic vàlid del 29 a les 12 UTC al 30 a les 12 UTC
Vent 12 kt del Sud/Sud-Oest
Visibilitat 10 km o més
sense núvols per sota de 1500 mi sense presència de cumulonimbus.
Evolucionant progressivament
l' 29 a les 18 UTC al 29 a les 21 UTC
Vent 2 kt amb direcció variable

TAF: LTCS 291040Z 2912/3012 20012KT CAVOK BECMG 2918/2921 VRB02KT

Observacions i pronòstics meteorològics de més de 4000 aeroports (METAR i TAF).

Les estacions disponibles són els punts grocs i vermells al mapa.

Posi el ratolí al punt desitjat per veure el nom de l'estació.

Feu clic per veure les observacions i els pronòstics meteorològics.

Per canviar el mapa: feu clic els botons verds amb una creu de color negre per apropar; al botó verd amb un guió per allunyar la imatge; o en les fletxes verdes per a mapes adjacents.


METAR-TAF: